Airfield :
LOGIN :

Register | Disclaimer

   EN    FR    IT 

 










Legend :    VFR   Marginal VFR   IFR   Intensive IFR   Very Intensive IFR
Visi :
Ceiling :
>= 8 km
>= 3000ft
5 to 8 km
1000 to 3000 ft
1500m to 5 km
500 to 1000 ft
800 to 1500m
200 to 500 ft
< 800m
< 200 ft
Symbols :   Thunderstorms  Fog  Heavy snow  Heavy precipitations  Wind > 20 kt
SIGMETs :     Misc.  Thunderstorms  Icing  Turbulence  Mountain Waves  Volcanic Ashes






- Airport Elevation : 1900 ft
- IATA code : FEZ


GMFF - Fez Saiss

CURRENT METAR :
  • 052230Z 19008KT CAVOK 30/10 Q1019 NOSIG

EXPIRED METARs :
  • 052200Z 20011KT CAVOK 30/11 Q1019 NOSIG
  • 052130Z 20009KT CAVOK 31/11 Q1019 NOSIG
  • 052100Z 22009KT CAVOK 33/12 Q1018 NOSIG
  • 052030Z 27005KT CAVOK 33/11 Q1018 NOSIG
  • 052000Z 29008KT CAVOK 34/13 Q1018 NOSIG

TAF TAF GMFF
Valid from the 05 at 18:00 until the 07 at 00:00 UTC


051700Z 0518/0624 32014KT CAVOK
BECMG 0523/0601 20006KT
BECMG 0612/0615 32012KT FEW030



MET'MAP, your aeronautical weather chart ! - Copyright ORBIFLY December 2007 - Disclaimer

ORBIFLY MET'MAP TEAM :

Programming & Development : Alexandra Zaïnal
Concept & original design : Baudouin d'Aumeries
Assistance for programming : Marc-Olivier Méhu
Technical & hardware support : Manuel Goepfert

Contact : metmap@orbifly.com




SOURCES & CREDITS :

   NOAA